Time;durP1;ratioP1;P1;durP2;ratioP2;P2;SDS_P1;SDS_P2;PMS_P1;PMS_P2;Temp;Humidity;BMP_temperature;BMP_pressure;BME280_temperature;BME280_humidity;BME280_pressure;Samples;Min_cycle;Max_cycle;Signal;HPM_P1;HPM_P2
2023/03/28 00:01:01;;;;;;;1.35;0.60;;;;;;;18.16;27.88;101830.06;5093382;28;20434;-46
2023/03/28 00:03:28;;;;;;;2.20;0.70;;;;;;;17.86;29.34;101828.19;5092949;28;20066;-46
2023/03/28 00:05:59;;;;;;;1.30;0.70;;;;;;;17.73;28.37;101833.81;5093222;28;20035;-45
2023/03/28 00:08:29;;;;;;;1.20;0.52;;;;;;;17.70;29.11;101831.50;5092992;28;20036;-46
2023/03/28 00:11:20;;;;;;;2.50;0.65;;;;;;;17.51;28.37;101827.19;5093092;28;20182;-46
2023/03/28 00:14:01;;;;;;;0.85;0.63;;;;;;;17.25;29.05;101828.34;5093057;28;20132;-46
2023/03/28 00:16:32;;;;;;;1.15;0.93;;;;;;;17.05;29.43;101836.72;5092982;28;20364;-46
2023/03/28 00:18:59;;;;;;;0.75;0.45;;;;;;;17.02;29.95;101835.25;5093027;28;20031;-46
2023/03/28 00:21:28;;;;;;;3.42;0.70;;;;;;;16.91;30.05;101835.19;5092873;28;20038;-46
2023/03/28 00:24:00;;;;;;;1.00;0.52;;;;;;;16.84;30.09;101833.38;5092679;28;20038;-46
2023/03/28 00:26:29;;;;;;;2.72;0.85;;;;;;;16.80;30.32;101826.75;5092901;28;20053;-46
2023/03/28 00:28:56;;;;;;;2.95;0.77;;;;;;;16.40;29.95;101841.66;5090263;28;20177;-46
2023/03/28 00:31:24;;;;;;;1.50;0.52;;;;;;;16.32;30.27;101837.31;5091947;28;20028;-46
2023/03/28 00:33:51;;;;;;;2.72;0.88;;;;;;;16.36;30.63;101838.53;5092432;28;20088;-46
2023/03/28 00:36:25;;;;;;;3.45;0.77;;;;;;;16.24;31.85;101838.44;5109571;28;20034;-46
2023/03/28 00:38:56;;;;;;;2.25;0.80;;;;;;;16.16;31.34;101833.31;5107752;28;20469;-46
2023/03/28 00:41:25;;;;;;;4.50;1.10;;;;;;;16.20;31.91;101825.56;5092188;28;20031;-46
2023/03/28 00:43:54;;;;;;;2.78;0.90;;;;;;;15.98;32.62;101823.22;5092323;28;20064;-46
2023/03/28 00:46:40;;;;;;;2.70;0.70;;;;;;;15.78;32.92;101822.53;5092320;28;20039;-46
2023/03/28 00:49:11;;;;;;;2.85;0.55;;;;;;;15.66;34.84;101825.09;5079539;28;20024;-46
2023/03/28 00:51:42;;;;;;;1.90;0.85;;;;;;;15.32;37.35;101820.84;5079816;28;20028;-47
2023/03/28 00:54:14;;;;;;;3.10;0.68;;;;;;;15.40;38.36;101825.19;5090287;28;20020;-46
2023/03/28 00:56:46;;;;;;;4.50;1.00;;;;;;;14.89;40.47;101821.41;5071931;28;20146;-48
2023/03/28 00:59:17;;;;;;;2.30;0.60;;;;;;;14.74;42.08;101826.19;5083543;28;20055;-46
2023/03/28 01:01:45;;;;;;;3.13;0.95;;;;;;;14.76;42.23;101826.81;5097285;28;20051;-46
2023/03/28 01:04:19;;;;;;;4.25;0.75;;;;;;;14.72;42.57;101825.59;5096893;28;20488;-46
2023/03/28 01:06:53;;;;;;;2.80;0.70;;;;;;;14.44;42.87;101823.91;5092109;28;20040;-46
2023/03/28 01:09:22;;;;;;;5.65;1.20;;;;;;;13.86;44.71;101825.50;5082883;28;20036;-46
2023/03/28 01:11:50;;;;;;;3.15;0.90;;;;;;;13.94;44.08;101823.47;5080072;28;20028;-46
2023/03/28 01:14:19;;;;;;;4.57;1.00;;;;;;;13.44;46.30;101827.44;5073919;28;20029;-46
2023/03/28 01:16:46;;;;;;;4.40;0.88;;;;;;;13.63;46.19;101820.47;5072591;28;20530;-46
2023/03/28 01:19:57;;;;;;;3.60;0.82;;;;;;;13.64;46.49;101816.75;5071633;28;20060;-38
2023/03/28 01:23:14;;;;;;;2.63;0.95;;;;;;;13.56;46.69;101817.75;5083224;28;20479;-39
2023/03/28 01:25:48;;;;;;;2.97;0.90;;;;;;;13.35;48.37;101818.72;5092640;28;20034;-40
2023/03/28 01:28:36;;;;;;;2.28;1.00;;;;;;;13.22;48.67;101824.03;5091456;28;20115;-39
2023/03/28 01:31:17;;;;;;;1.58;0.70;;;;;;;13.28;49.38;101820.53;5091587;28;20024;-39
2023/03/28 01:34:14;;;;;;;4.20;0.82;;;;;;;13.17;49.74;101821.91;5112254;28;20071;-39
2023/03/28 01:37:17;;;;;;;2.92;1.17;;;;;;;13.22;50.42;101831.28;5109355;28;20039;-38
2023/03/28 01:40:13;;;;;;;2.85;1.00;;;;;;;13.12;50.40;101832.44;5091360;28;20028;-39
2023/03/28 01:43:09;;;;;;;3.15;1.15;;;;;;;12.93;50.42;101831.25;5111898;28;20102;-39
2023/03/28 01:45:34;;;;;;;;;;;;;;;12.99;50.17;101828.81;5103953;28;20055;-39
2023/03/28 01:48:14;;;;;;;2.45;0.95;;;;;;;12.70;50.68;101825.31;5105526;28;19951;-42
2023/03/28 01:50:43;;;;;;;4.78;0.98;;;;;;;12.54;51.72;101825.63;5086406;28;20090;-45
2023/03/28 01:53:29;;;;;;;1.52;0.70;;;;;;;12.62;51.79;101820.94;5073803;28;20035;-39
2023/03/28 01:56:01;;;;;;;5.82;1.20;;;;;;;12.56;52.23;101815.53;5076619;28;20422;-39
2023/03/28 01:58:39;;;;;;;1.95;0.80;;;;;;;12.23;52.34;101813.41;5085891;28;20028;-40
2023/03/28 02:01:12;;;;;;;3.35;0.80;;;;;;;12.20;53.20;101819.16;5095628;28;20058;-39
2023/03/28 02:03:50;;;;;;;4.70;1.00;;;;;;;12.06;53.70;101828.94;5095070;28;20400;-40
2023/03/28 02:06:20;;;;;;;9.50;1.25;;;;;;;11.93;54.17;101833.31;5095533;28;20088;-40
2023/03/28 02:08:49;;;;;;;2.38;0.77;;;;;;;11.86;54.96;101831.41;5095820;28;20020;-39
2023/03/28 02:11:15;;;;;;;4.90;1.05;;;;;;;11.97;54.64;101840.81;5091710;28;20035;-40
2023/03/28 02:13:48;;;;;;;3.90;0.90;;;;;;;12.06;53.94;101833.47;5095577;28;20107;-40
2023/03/28 02:16:17;;;;;;;4.15;0.70;;;;;;;12.11;54.38;101836.41;5095761;28;20103;-39
2023/03/28 02:18:51;;;;;;;3.63;0.80;;;;;;;11.63;55.90;101833.38;5095643;28;20020;-39
2023/03/28 02:21:23;;;;;;;2.60;0.88;;;;;;;11.69;56.52;101832.63;5095172;28;20028;-39
2023/03/28 02:23:54;;;;;;;3.33;1.10;;;;;;;11.67;56.93;101828.50;5095496;28;20471;-40
2023/03/28 02:26:24;;;;;;;3.95;1.05;;;;;;;11.55;57.66;101828.16;5091533;28;20028;-44
2023/03/28 02:28:54;;;;;;;3.88;1.00;;;;;;;11.52;58.31;101833.88;5093595;28;20103;-42
2023/03/28 02:31:22;;;;;;;5.47;1.00;;;;;;;11.50;58.07;101833.25;5095009;28;20110;-41
2023/03/28 02:33:50;;;;;;;2.63;0.75;;;;;;;11.36;58.56;101827.69;5095856;28;20110;-42
2023/03/28 02:36:53;;;;;;;3.03;0.70;;;;;;;11.22;58.90;101833.91;5095165;28;20052;-41
2023/03/28 02:39:19;;;;;;;3.67;1.10;;;;;;;11.32;58.76;101829.09;5084819;28;20034;-42
2023/03/28 02:42:04;;;;;;;2.45;0.73;;;;;;;11.32;58.59;101837.13;5080452;28;20023;-42
2023/03/28 02:44:45;;;;;;;6.88;0.90;;;;;;;11.43;58.07;101837.66;5080353;28;20025;-42
2023/03/28 02:47:39;;;;;;;4.10;0.95;;;;;;;11.34;58.17;101847.69;5085917;28;20469;-44
2023/03/28 02:50:10;;;;;;;2.72;0.90;;;;;;;11.27;57.78;101834.19;5094082;28;20020;-41
2023/03/28 02:52:58;;;;;;;3.22;1.08;;;;;;;11.27;57.76;101841.38;5112158;28;20115;-42
2023/03/28 02:55:30;;;;;;;4.10;0.80;;;;;;;11.11;58.33;101845.09;5108087;28;20024;-42
2023/03/28 02:58:21;;;;;;;1.52;0.75;;;;;;;11.18;58.16;101837.97;5074511;28;20380;-43
2023/03/28 03:00:48;;;;;;;3.58;0.80;;;;;;;11.21;57.88;101851.00;5080869;28;20032;-44
2023/03/28 03:03:16;;;;;;;2.10;1.02;;;;;;;11.23;57.68;101840.94;5094266;28;20040;-42
2023/03/28 03:05:43;;;;;;;7.38;0.90;;;;;;;11.23;57.86;101840.13;5093708;28;20024;-41
2023/03/28 03:08:10;;;;;;;3.05;0.93;;;;;;;11.18;58.41;101835.31;5099107;28;20107;-41
2023/03/28 03:10:36;;;;;;;1.60;0.80;;;;;;;11.19;58.22;101836.13;5114465;28;20089;-42
2023/03/28 03:13:02;;;;;;;4.43;1.02;;;;;;;11.16;58.30;101837.34;5114603;28;20023;-43
2023/03/28 03:15:29;;;;;;;4.85;1.30;;;;;;;11.06;58.16;101848.34;5114717;28;20035;-41
2023/03/28 03:17:59;;;;;;;6.20;1.80;;;;;;;11.13;57.79;101847.59;5114374;28;20024;-43
2023/03/28 03:20:32;;;;;;;3.65;1.23;;;;;;;11.11;58.23;101858.50;5114437;28;20089;-42
2023/03/28 03:23:01;;;;;;;4.18;1.73;;;;;;;11.09;57.88;101856.00;5114512;28;20080;-43
2023/03/28 03:25:30;;;;;;;3.20;1.10;;;;;;;11.27;57.17;101860.13;5113519;28;20027;-41
2023/03/28 03:27:56;;;;;;;2.15;0.80;;;;;;;11.18;57.22;101861.28;5114275;28;20035;-41
2023/03/28 03:30:22;;;;;;;2.10;1.08;;;;;;;11.24;57.60;101860.53;5114026;28;20102;-42
2023/03/28 03:32:49;;;;;;;6.32;1.10;;;;;;;11.25;57.96;101863.00;5102451;28;20077;-43
2023/03/28 03:35:15;;;;;;;3.63;0.90;;;;;;;11.26;58.08;101863.84;5090313;28;20436;-42
2023/03/28 03:37:41;;;;;;;4.82;0.80;;;;;;;11.17;58.18;101860.44;5080096;28;20031;-43
2023/03/28 03:40:08;;;;;;;1.75;0.95;;;;;;;11.30;57.93;101863.28;5075929;28;20115;-43
2023/03/28 03:42:35;;;;;;;2.67;0.70;;;;;;;11.17;58.48;101863.13;5086484;28;20017;-43
2023/03/28 03:45:01;;;;;;;2.58;0.70;;;;;;;11.21;58.60;101860.88;5073312;28;20111;-41
2023/03/28 03:47:27;;;;;;;3.30;1.00;;;;;;;11.24;58.33;101858.69;5088665;28;20032;-42
2023/03/28 03:49:54;;;;;;;3.35;0.85;;;;;;;11.25;59.08;101852.28;5093099;28;20085;-42
2023/03/28 03:52:20;;;;;;;1.13;0.63;;;;;;;11.33;58.96;101854.91;5092472;28;20085;-43
2023/03/28 03:54:46;;;;;;;2.50;0.95;;;;;;;11.26;58.90;101850.44;5086174;28;20508;-41
2023/03/28 03:57:13;;;;;;;4.05;0.80;;;;;;;11.24;58.56;101850.63;5073016;28;20484;-42
2023/03/28 03:59:39;;;;;;;3.72;0.90;;;;;;;11.14;59.32;101859.97;5088749;28;20066;-42
2023/03/28 04:02:06;;;;;;;2.78;1.13;;;;;;;11.15;59.73;101854.41;5092871;28;20040;-40
2023/03/28 04:04:32;;;;;;;1.67;1.02;;;;;;;11.16;59.26;101848.06;5093227;28;20107;-41
2023/03/28 04:06:58;;;;;;;2.60;0.88;;;;;;;11.07;58.86;101851.84;5093078;28;20035;-42
2023/03/28 04:09:26;;;;;;;6.15;0.70;;;;;;;11.09;59.01;101852.47;5092628;28;20036;-41
2023/03/28 04:11:54;;;;;;;1.58;0.80;;;;;;;11.21;58.25;101848.31;5080315;28;20032;-40
2023/03/28 04:14:20;;;;;;;4.03;0.68;;;;;;;11.14;58.61;101851.94;5072531;28;20039;-41
2023/03/28 04:16:49;;;;;;;2.08;0.60;;;;;;;11.17;58.44;101841.69;5094515;28;20410;-42
2023/03/28 04:19:17;;;;;;;2.92;0.65;;;;;;;11.10;58.65;101848.78;5072306;28;20025;-41
2023/03/28 04:21:47;;;;;;;5.22;1.10;;;;;;;11.25;58.71;101852.28;5072489;28;20021;-44
2023/03/28 04:24:23;;;;;;;2.97;0.82;;;;;;;11.14;59.49;101846.56;5072600;28;20025;-43
2023/03/28 04:26:54;;;;;;;4.03;1.08;;;;;;;11.16;59.59;101845.38;5077966;22;20052;-41
2023/03/28 04:29:40;;;;;;;3.80;0.88;;;;;;;11.14;59.56;101844.72;5068743;28;20025;-42
2023/03/28 04:32:06;;;;;;;2.35;0.70;;;;;;;11.06;59.88;101842.97;5052235;28;20031;-41
2023/03/28 04:34:34;;;;;;;1.73;0.70;;;;;;;11.06;59.73;101837.63;5070067;28;20021;-41
2023/03/28 04:37:02;;;;;;;3.17;0.65;;;;;;;11.04;60.19;101830.75;5072494;28;20017;-42
2023/03/28 04:39:29;;;;;;;6.10;0.80;;;;;;;11.17;59.68;101822.94;5071696;28;20021;-42
2023/03/28 04:42:00;;;;;;;2.83;0.98;;;;;;;11.18;59.28;101821.91;5072328;28;20106;-43
2023/03/28 04:44:28;;;;;;;6.20;0.82;;;;;;;10.96;59.96;101818.31;5072321;28;20028;-41
2023/03/28 04:46:55;;;;;;;4.63;1.10;;;;;;;11.08;59.30;101805.28;5072333;28;20028;-41
2023/03/28 04:49:22;;;;;;;1.63;0.75;;;;;;;10.98;59.69;101812.75;5058545;28;20531;-43
2023/03/28 04:51:49;;;;;;;1.35;0.73;;;;;;;10.97;59.57;101811.09;5071193;28;20020;-41
2023/03/28 04:54:16;;;;;;;1.30;0.50;;;;;;;11.03;59.48;101805.81;5065747;28;20029;-41
2023/03/28 04:56:44;;;;;;;4.28;1.00;;;;;;;10.97;59.81;101808.41;5052214;28;20028;-41
2023/03/28 04:59:14;;;;;;;1.20;0.70;;;;;;;11.00;59.46;101811.56;5051566;28;20120;-42
2023/03/28 05:01:47;;;;;;;2.88;0.88;;;;;;;10.90;60.25;101804.81;5051804;28;20108;-41
2023/03/28 05:04:17;;;;;;;3.25;0.88;;;;;;;10.80;60.63;101805.09;5051638;28;20436;-41
2023/03/28 05:06:45;;;;;;;7.45;1.00;;;;;;;10.87;60.62;101805.19;5057443;28;20032;-41
2023/03/28 05:09:12;;;;;;;5.10;1.10;;;;;;;10.97;60.80;101795.03;5071241;28;20492;-42
2023/03/28 05:11:39;;;;;;;3.00;0.60;;;;;;;10.77;61.42;101797.41;5071709;28;20039;-41
2023/03/28 05:14:06;;;;;;;2.15;1.00;;;;;;;10.82;61.75;101787.81;5070723;28;20133;-42
2023/03/28 05:16:32;;;;;;;2.13;0.98;;;;;;;10.66;62.17;101781.78;5071616;28;20113;-41
2023/03/28 05:18:58;;;;;;;1.70;0.90;;;;;;;10.82;62.03;101777.09;5069894;28;20086;-41
2023/03/28 05:21:24;;;;;;;4.00;0.98;;;;;;;10.60;62.21;101769.97;5071680;28;20028;-41
2023/03/28 05:23:51;;;;;;;3.25;1.10;;;;;;;10.72;61.83;101757.81;5070109;28;20028;-41
2023/03/28 05:26:17;;;;;;;3.38;1.00;;;;;;;10.65;62.02;101742.66;5071402;28;20048;-41
2023/03/28 05:28:43;;;;;;;3.55;0.82;;;;;;;10.48;62.68;101733.97;5070500;28;20032;-42
2023/03/28 05:31:10;;;;;;;3.65;0.82;;;;;;;10.56;62.33;101724.03;5070536;28;20099;-41
2023/03/28 05:33:36;;;;;;;2.47;0.80;;;;;;;10.63;61.97;101717.94;5071254;28;20028;-41
2023/03/28 05:36:03;;;;;;;3.83;0.90;;;;;;;10.70;61.94;101725.03;5070823;28;20469;-41
2023/03/28 05:38:32;;;;;;;1.80;1.02;;;;;;;10.51;62.57;101729.09;5071263;28;20032;-41
2023/03/28 05:40:58;;;;;;;4.68;1.05;;;;;;;10.66;62.19;101725.56;5069667;28;20029;-41
2023/03/28 05:43:24;;;;;;;2.47;1.10;;;;;;;10.79;62.02;101721.25;5071085;28;20107;-42
2023/03/28 05:45:51;;;;;;;2.30;0.98;;;;;;;10.73;62.20;101713.97;5070241;28;20032;-41
2023/03/28 05:48:18;;;;;;;2.40;0.93;;;;;;;10.69;62.28;101712.66;5071092;28;20361;-41
2023/03/28 05:50:46;;;;;;;2.72;0.75;;;;;;;10.56;63.08;101709.81;5069423;28;20472;-41
2023/03/28 05:53:12;;;;;;;2.35;1.10;;;;;;;10.63;62.93;101694.66;5071335;28;20396;-43
2023/03/28 05:55:40;;;;;;;1.45;0.88;;;;;;;10.50;63.06;101697.16;5052473;28;20105;-41
2023/03/28 05:58:06;;;;;;;2.97;1.23;;;;;;;10.72;62.46;101695.41;5050814;28;20108;-41
2023/03/28 06:00:33;;;;;;;3.97;1.00;;;;;;;10.55;62.81;101700.94;5063475;28;20057;-41
2023/03/28 06:03:00;;;;;;;2.22;0.88;;;;;;;10.35;63.21;101697.16;5051133;28;20068;-41
2023/03/28 06:05:26;;;;;;;3.13;1.10;;;;;;;10.44;63.21;101700.59;5051025;28;20041;-42
2023/03/28 06:07:53;;;;;;;5.15;1.17;;;;;;;10.50;62.48;101698.00;5050816;28;20022;-41
2023/03/28 06:10:19;;;;;;;3.80;1.38;;;;;;;10.60;62.68;101702.22;5049977;28;20362;-42
2023/03/28 06:12:46;;;;;;;3.30;1.10;;;;;;;10.42;62.93;101700.75;5050726;28;20116;-41
2023/03/28 06:15:12;;;;;;;1.20;0.90;;;;;;;10.64;62.44;101703.53;5062021;28;20021;-41
2023/03/28 06:17:39;;;;;;;2.55;0.77;;;;;;;10.70;62.11;101702.78;5051049;28;20108;-41
2023/03/28 06:20:06;;;;;;;2.65;1.00;;;;;;;10.69;62.39;101699.28;5051967;28;20033;-41
2023/03/28 06:22:32;;;;;;;2.00;1.00;;;;;;;10.69;62.18;101696.59;5050784;28;20024;-41
2023/03/28 06:24:58;;;;;;;2.13;0.95;;;;;;;10.75;62.17;101698.53;5049940;28;20110;-41
2023/03/28 06:27:25;;;;;;;2.72;1.13;;;;;;;10.82;61.67;101706.63;5051401;28;20029;-41
2023/03/28 06:29:51;;;;;;;2.83;0.70;;;;;;;10.82;61.43;101696.75;5067666;28;20319;-42
2023/03/28 06:32:18;;;;;;;2.15;0.90;;;;;;;10.91;61.13;101704.69;5064191;28;20107;-41
2023/03/28 06:34:44;;;;;;;4.05;0.82;;;;;;;10.71;61.73;101691.88;5061537;28;20024;-41
2023/03/28 06:37:10;;;;;;;3.70;0.93;;;;;;;10.67;61.82;101673.72;5074633;28;20035;-41
2023/03/28 06:39:37;;;;;;;5.88;1.17;;;;;;;10.67;61.15;101677.22;5074342;28;20051;-41
2023/03/28 06:42:03;;;;;;;2.75;1.08;;;;;;;10.41;61.19;101666.97;5074493;28;20040;-40
2023/03/28 06:44:30;;;;;;;4.80;1.30;;;;;;;10.42;61.32;101665.94;5068849;28;20071;-41
2023/03/28 06:46:56;;;;;;;5.70;1.35;;;;;;;10.57;61.15;101671.31;5058271;28;20037;-41
2023/03/28 06:49:23;;;;;;;2.15;1.20;;;;;;;10.71;60.98;101675.81;5062511;28;20120;-41
2023/03/28 06:51:50;;;;;;;3.67;1.00;;;;;;;10.61;61.45;101679.81;5069273;28;20033;-41
2023/03/28 06:54:16;;;;;;;1.38;0.85;;;;;;;10.51;61.83;101677.41;5053901;28;20437;-41
2023/03/28 06:56:42;;;;;;;3.97;1.40;;;;;;;10.66;61.83;101680.91;5054154;28;20489;-41
2023/03/28 06:59:09;;;;;;;2.58;1.30;;;;;;;10.63;61.33;101675.09;5053908;28;20065;-41
2023/03/28 07:01:35;;;;;;;5.03;1.20;;;;;;;10.75;61.20;101682.47;5053836;28;20032;-42
2023/03/28 07:04:01;;;;;;;3.72;1.27;;;;;;;10.77;61.32;101680.44;5056940;28;20025;-41
2023/03/28 07:06:28;;;;;;;3.08;1.10;;;;;;;10.67;61.38;101677.22;5062369;28;20078;-41
2023/03/28 07:08:57;;;;;;;4.57;1.10;;;;;;;10.82;61.32;101667.28;5073713;28;20039;-41
2023/03/28 07:11:23;;;;;;;2.83;1.20;;;;;;;10.84;61.32;101673.31;5073743;28;20024;-41
2023/03/28 07:13:49;;;;;;;4.95;1.40;;;;;;;10.63;62.37;101673.25;5084956;28;20427;-41
2023/03/28 07:16:16;;;;;;;2.90;1.08;;;;;;;10.91;61.56;101669.88;5093977;28;20493;-41
2023/03/28 07:18:43;;;;;;;2.92;1.10;;;;;;;10.98;61.28;101668.09;5092376;28;20366;-41
2023/03/28 07:21:17;;;;;;;5.20;1.38;;;;;;;10.99;61.08;101661.72;5093990;28;20361;-41
2023/03/28 07:23:44;;;;;;;2.95;1.00;;;;;;;10.80;60.76;101666.66;5082895;28;20023;-41
2023/03/28 07:26:12;;;;;;;2.45;1.35;;;;;;;10.99;59.97;101662.56;5073314;28;20402;-41
2023/03/28 07:28:39;;;;;;;2.10;0.90;;;;;;;10.80;60.56;101655.13;5072067;28;20474;-41
2023/03/28 07:31:05;;;;;;;2.70;1.15;;;;;;;10.83;59.63;101658.25;5062310;28;20036;-42
2023/03/28 07:33:33;;;;;;;2.08;0.90;;;;;;;10.52;59.13;101663.84;5069765;28;20056;-40
2023/03/28 07:36:06;;;;;;;4.00;1.27;;;;;;;10.61;61.08;101658.41;5073382;28;20085;-42
2023/03/28 07:38:33;;;;;;;3.22;1.30;;;;;;;10.74;61.42;101647.84;5073429;28;20021;-41
2023/03/28 07:41:00;;;;;;;4.88;1.25;;;;;;;10.70;61.79;101642.03;5071323;28;20028;-42
2023/03/28 07:43:26;;;;;;;2.72;1.65;;;;;;;10.74;62.11;101646.00;5055893;28;20029;-41
2023/03/28 07:45:59;;;;;;;3.05;1.40;;;;;;;10.77;61.80;101650.97;5072661;28;20082;-41
2023/03/28 07:48:25;;;;;;;5.70;1.73;;;;;;;10.71;62.18;101637.50;5071946;28;20048;-42
2023/03/28 07:50:52;;;;;;;4.03;1.17;;;;;;;10.67;62.20;101642.41;5072589;28;20111;-41
2023/03/28 07:53:18;;;;;;;5.13;1.42;;;;;;;10.69;61.95;101634.19;5073067;28;20032;-41
2023/03/28 07:55:44;;;;;;;4.97;1.50;;;;;;;10.73;62.06;101636.31;5073040;28;20032;-43
2023/03/28 07:58:10;;;;;;;7.05;1.30;;;;;;;11.03;61.38;101638.91;5073063;28;20028;-41
2023/03/28 08:00:37;;;;;;;2.80;1.23;;;;;;;10.83;61.82;101639.53;5071288;28;20511;-41
2023/03/28 08:03:03;;;;;;;2.55;1.05;;;;;;;10.86;61.73;101642.81;5072938;28;20392;-41
2023/03/28 08:05:32;;;;;;;4.10;1.25;;;;;;;10.86;61.58;101632.94;5072570;28;20028;-41
2023/03/28 08:07:59;;;;;;;5.65;1.20;;;;;;;10.95;61.40;101631.81;5073179;28;20029;-41
2023/03/28 08:10:25;;;;;;;3.85;1.20;;;;;;;10.93;61.91;101615.09;5072349;28;20066;-41
2023/03/28 08:12:51;;;;;;;4.45;1.30;;;;;;;11.04;61.56;101624.47;5072808;28;20111;-41
2023/03/28 08:15:18;;;;;;;2.92;1.38;;;;;;;11.09;61.58;101614.03;5072234;28;20086;-41
2023/03/28 08:17:44;;;;;;;2.17;1.23;;;;;;;11.17;61.03;101621.13;5070745;28;20052;-41
2023/03/28 08:20:11;;;;;;;3.13;1.30;;;;;;;11.05;60.87;101610.09;5071504;28;20025;-41
2023/03/28 08:22:37;;;;;;;2.85;1.15;;;;;;;11.06;60.95;101614.44;5072530;28;20024;-41
2023/03/28 08:25:05;;;;;;;4.10;1.10;;;;;;;10.95;61.01;101604.22;5070381;28;20095;-41
2023/03/28 08:27:31;;;;;;;3.50;0.90;;;;;;;11.17;59.33;101611.25;5071184;28;20032;-41
2023/03/28 08:29:58;;;;;;;4.65;0.90;;;;;;;10.75;60.69;101610.16;5071381;28;20016;-41
2023/03/28 08:32:25;;;;;;;3.13;1.00;;;;;;;10.88;60.63;101608.63;5064444;28;20027;-41
2023/03/28 08:34:52;;;;;;;2.47;1.17;;;;;;;10.91;60.79;101594.88;5072253;28;20028;-42
2023/03/28 08:37:20;;;;;;;2.63;0.90;;;;;;;10.79;60.41;101590.03;5072300;28;20017;-42
2023/03/28 08:39:47;;;;;;;4.93;1.10;;;;;;;10.83;59.94;101590.47;5070039;28;20032;-41
2023/03/28 08:42:38;;;;;;;3.38;1.08;;;;;;;10.68;59.65;101587.84;5072616;28;20037;-41
2023/03/28 08:45:25;;;;;;;2.17;0.70;;;;;;;10.96;56.15;101590.63;5055144;28;20033;-41
2023/03/28 08:48:05;;;;;;;1.25;0.60;;;;;;;10.84;46.27;101576.06;5065015;28;20033;-41
2023/03/28 08:50:42;;;;;;;2.55;0.70;;;;;;;10.93;41.00;101572.22;5071730;28;20025;-41
2023/03/28 08:53:29;;;;;;;1.85;0.70;;;;;;;10.87;40.79;101566.81;5070539;28;20150;-41
2023/03/28 08:55:57;;;;;;;1.27;0.52;;;;;;;10.84;41.04;101571.53;5071780;28;20025;-41
2023/03/28 08:58:30;;;;;;;1.60;0.70;;;;;;;10.93;41.21;101560.69;5069312;28;20435;-41
2023/03/28 09:00:56;;;;;;;3.22;0.57;;;;;;;10.89;42.09;101562.13;5067414;28;20500;-41
2023/03/28 09:03:23;;;;;;;1.85;0.55;;;;;;;10.90;43.35;101558.41;5071813;28;20024;-41
2023/03/28 09:06:08;;;;;;;1.23;0.60;;;;;;;10.83;44.23;101548.47;5069883;28;20481;-41
2023/03/28 09:08:42;;;;;;;1.10;0.60;;;;;;;10.91;45.37;101552.03;5070424;28;20039;-41
2023/03/28 09:11:33;;;;;;;2.72;0.52;;;;;;;10.88;46.30;101555.06;5070323;28;20028;-41
2023/03/28 09:14:23;;;;;;;0.68;0.60;;;;;;;10.95;45.73;101539.91;5070735;28;20119;-41
2023/03/28 09:17:05;;;;;;;1.25;0.60;;;;;;;10.78;47.39;101539.34;5071674;28;20025;-41
2023/03/28 09:19:55;;;;;;;1.45;0.70;;;;;;;10.88;47.44;101530.97;5067871;28;20052;-41
2023/03/28 09:22:39;;;;;;;2.05;0.50;;;;;;;10.92;47.37;101537.63;5071457;28;20029;-41
2023/03/28 09:25:29;;;;;;;2.95;0.57;;;;;;;10.96;47.83;101533.53;5071347;28;20049;-41
2023/03/28 09:28:29;;;;;;;3.53;0.75;;;;;;;10.90;48.78;101527.09;5070754;28;20115;-41
2023/03/28 09:30:57;;;;;;;2.33;0.63;;;;;;;10.87;48.81;101527.47;5070071;28;20456;-41
2023/03/28 09:33:27;;;;;;;2.38;0.77;;;;;;;10.92;49.67;101526.91;5058123;28;20031;-40
2023/03/28 09:35:56;;;;;;;1.25;0.60;;;;;;;10.95;50.06;101510.47;5071415;28;20063;-41
2023/03/28 09:38:37;;;;;;;2.28;0.80;;;;;;;10.96;51.52;101507.59;5070225;28;20029;-41
2023/03/28 09:41:10;;;;;;;2.47;0.70;;;;;;;10.91;51.84;101501.16;5067570;28;20024;-41
2023/03/28 09:43:52;;;;;;;3.42;0.70;;;;;;;10.91;47.71;101501.16;5071238;28;20074;-41
2023/03/28 09:46:39;;;;;;;2.90;0.70;;;;;;;10.77;46.09;101495.66;5070469;28;20094;-40
2023/03/28 09:49:05;;;;;;;0.98;0.60;;;;;;;10.74;48.22;101488.00;5068709;28;20032;-40
2023/03/28 09:51:32;;;;;;;1.70;0.70;;;;;;;10.71;49.39;101484.88;5071228;28;20048;-41
2023/03/28 09:53:58;;;;;;;2.70;1.30;;;;;;;10.58;48.03;101480.22;5070322;28;20029;-41
2023/03/28 09:56:43;;;;;;;1.58;0.60;;;;;;;10.47;48.16;101476.19;5070991;28;20043;-41
2023/03/28 09:59:25;;;;;;;1.83;0.60;;;;;;;10.33;48.06;101469.06;5068713;28;20043;-41
2023/03/28 10:01:52;;;;;;;2.95;0.60;;;;;;;10.44;47.40;101462.38;5051352;28;20029;-41
2023/03/28 10:04:40;;;;;;;2.08;1.10;;;;;;;10.49;47.83;101459.94;5064286;28;20047;-41
2023/03/28 10:07:10;;;;;;;1.13;0.80;;;;;;;10.39;47.60;101454.91;5070462;28;20047;-41
2023/03/28 10:09:57;;;;;;;1.48;0.70;;;;;;;10.46;46.48;101458.47;5071245;28;20032;-40
2023/03/28 10:12:45;;;;;;;2.47;0.75;;;;;;;10.62;45.38;101449.38;5075041;28;20031;-41
2023/03/28 10:15:33;;;;;;;1.63;0.60;;;;;;;10.51;46.64;101442.69;5054748;28;20389;-40
2023/03/28 10:18:03;;;;;;;1.33;0.50;;;;;;;10.49;46.08;101427.81;5056248;28;20051;-41
2023/03/28 10:20:36;;;;;;;1.25;0.60;;;;;;;10.60;45.02;101430.00;5073624;28;20036;-40
2023/03/28 10:23:04;;;;;;;1.52;0.80;;;;;;;10.60;46.00;101421.13;5073862;28;20028;-40
2023/03/28 10:25:38;;;;;;;1.33;0.90;;;;;;;10.67;45.74;101422.88;5074615;28;20055;-40
2023/03/28 10:28:07;;;;;;;2.92;0.88;;;;;;;10.67;45.36;101427.41;5072632;28;20020;-41
2023/03/28 10:30:35;;;;;;;3.65;0.93;;;;;;;10.80;45.75;101425.66;5072564;28;20036;-41
2023/03/28 10:33:15;;;;;;;3.92;0.70;;;;;;;10.71;44.97;101426.78;5074474;28;20023;-41
2023/03/28 10:35:56;;;;;;;2.13;0.70;;;;;;;10.69;44.08;101418.13;5072261;28;20040;-40
2023/03/28 10:38:24;;;;;;;1.83;0.68;;;;;;;10.67;43.80;101414.84;5074389;28;20099;-41
2023/03/28 10:41:02;;;;;;;2.03;0.80;;;;;;;10.47;44.03;101401.25;5074062;28;20024;-41
2023/03/28 10:43:37;;;;;;;1.95;0.70;;;;;;;10.44;42.62;101387.44;5073639;28;20028;-41
2023/03/28 10:46:18;;;;;;;1.88;0.88;;;;;;;10.56;42.06;101378.69;5054404;28;20036;-40
2023/03/28 10:49:11;;;;;;;1.75;0.73;;;;;;;10.51;42.93;101369.59;5062305;28;20033;-40
2023/03/28 10:51:39;;;;;;;2.33;0.98;;;;;;;10.58;43.17;101370.47;5073713;28;20123;-41
2023/03/28 10:54:34;;;;;;;2.00;1.00;;;;;;;10.64;42.86;101371.53;5073206;28;20031;-41
2023/03/28 10:57:07;;;;;;;2.20;0.80;;;;;;;10.61;42.93;101364.75;5074664;28;20055;-41
2023/03/28 11:00:00;;;;;;;1.55;0.90;;;;;;;10.80;43.91;101361.38;5072632;28;20032;-41
2023/03/28 11:02:38;;;;;;;3.78;1.00;;;;;;;10.69;42.78;101347.69;5074101;28;20039;-41
2023/03/28 11:05:16;;;;;;;1.60;0.80;;;;;;;10.84;43.63;101349.25;5052808;28;20057;-41
2023/03/28 11:07:57;;;;;;;1.65;1.00;;;;;;;10.83;43.83;101338.75;5053874;28;20029;-41
2023/03/28 11:10:24;;;;;;;1.95;0.85;;;;;;;10.88;43.84;101327.44;5070490;28;20059;-41
2023/03/28 11:13:06;;;;;;;1.20;0.93;;;;;;;10.87;45.44;101321.25;5072095;28;20037;-41
2023/03/28 11:16:10;;;;;;;3.65;1.10;;;;;;;10.46;48.74;101319.31;5071643;28;20485;-41
2023/03/28 11:19:03;;;;;;;3.53;1.20;;;;;;;10.77;50.00;101313.59;5071627;28;20465;-41
2023/03/28 11:21:51;;;;;;;2.92;1.17;;;;;;;10.58;51.00;101306.22;5073226;28;20546;-41
2023/03/28 11:24:46;;;;;;;1.88;1.00;;;;;;;10.71;50.39;101292.09;5072659;28;20051;-41
2023/03/28 11:27:37;;;;;;;1.67;0.87;;;;;;;10.84;50.85;101295.72;5056563;28;20127;-41
2023/03/28 11:30:17;;;;;;;2.30;0.88;;;;;;;10.78;49.26;101285.78;5068586;28;20273;-41
2023/03/28 11:32:46;;;;;;;0.80;0.73;;;;;;;10.71;47.31;101274.19;5072863;28;20069;-41
2023/03/28 11:35:37;;;;;;;2.58;0.80;;;;;;;10.55;44.22;101267.31;5071700;28;20497;-41
2023/03/28 11:38:06;;;;;;;1.40;0.70;;;;;;;10.56;43.37;101257.41;5072195;28;20036;-40
2023/03/28 11:40:51;;;;;;;1.05;0.82;;;;;;;10.53;43.07;101265.84;5072568;28;20451;-40
2023/03/28 11:43:44;;;;;;;3.50;0.80;;;;;;;10.60;43.39;101257.84;5072191;28;20407;-41
2023/03/28 11:46:23;;;;;;;4.05;0.93;;;;;;;10.58;42.31;101234.78;5035809;28;20047;-41
2023/03/28 11:49:16;;;;;;;2.35;0.77;;;;;;;10.70;41.46;101223.50;5070023;28;20477;-41